HTI weather

Hamilton Island Airport
Hamilton Island, Queensland, Australia

Public forecast

Using degrees Celsius for public forecast. Weather courtesy of forecast.io.

Current aviation weather report (METAR) for Hamilton Island Airport

Retrieved 2019/10/18 02:30 UTC (0 seconds ago):

YBHM 180230Z AUTO 32016KT 9999 // NCD 28/20 Q1015 RF000/0000

Aviation forecast (TAF) for Hamilton Island Airport

Retrieved 2019-10-18 00:00 UTC (2 hours ago):

TAF YBHM 172201Z 1800/1812 36016KT 9999 SCT025 FM180800 36014KT 9999 SCT020